sensor_id;sensor_type;location;lat;lon;timestamp;pressure;altitude;pressure_sealevel;temperature;humidity
25650;BME280;13505;45.196;5.696;2023-04-24T06:02:16;98928.06;;;12.22;100.00
25650;BME280;13505;45.196;5.696;2023-04-24T06:07:06;98949.59;;;12.46;100.00
25650;BME280;13505;45.196;5.696;2023-04-24T06:11:57;98964.97;;;12.39;99.41
25650;BME280;13505;45.196;5.696;2023-04-24T06:16:48;98974.28;;;12.31;98.94
25650;BME280;13505;45.196;5.696;2023-04-24T06:21:38;98975.28;;;12.28;99.75
25650;BME280;13505;45.196;5.696;2023-04-24T06:26:29;98972.66;;;12.28;100.00
25650;BME280;13505;45.196;5.696;2023-04-24T06:31:20;98972.66;;;12.28;100.00
25650;BME280;13505;45.196;5.696;2023-04-24T06:36:12;98980.66;;;12.26;100.00
25650;BME280;13505;45.196;5.696;2023-04-24T06:41:02;98975.13;;;12.31;100.00
25650;BME280;13505;45.196;5.696;2023-04-24T06:45:55;98978.09;;;12.41;100.00
25650;BME280;13505;45.196;5.696;2023-04-24T06:50:46;98983.63;;;12.52;100.00
25650;BME280;13505;45.196;5.696;2023-04-24T06:55:37;98984.13;;;12.59;100.00
25650;BME280;13505;45.196;5.696;2023-04-24T07:00:27;98995.13;;;12.67;100.00
25650;BME280;13505;45.196;5.696;2023-04-24T07:05:17;99011.06;;;12.82;100.00
25650;BME280;13505;45.196;5.696;2023-04-24T07:10:10;99022.03;;;12.76;100.00
25650;BME280;13505;45.196;5.696;2023-04-24T07:15:00;99024.25;;;12.67;100.00
25650;BME280;13505;45.196;5.696;2023-04-24T07:19:50;99033.03;;;12.68;100.00
25650;BME280;13505;45.196;5.696;2023-04-24T07:24:41;99027.66;;;12.69;100.00
25650;BME280;13505;45.196;5.696;2023-04-24T07:29:31;99042.59;;;12.70;99.51
25650;BME280;13505;45.196;5.696;2023-04-24T07:34:21;99043.44;;;12.71;99.66
25650;BME280;13505;45.196;5.696;2023-04-24T07:39:12;99049.06;;;12.81;99.83
25650;BME280;13505;45.196;5.696;2023-04-24T07:44:02;99052.38;;;12.84;100.00
25650;BME280;13505;45.196;5.696;2023-04-24T07:48:52;99061.78;;;12.90;100.00
25650;BME280;13505;45.196;5.696;2023-04-24T07:53:43;99064.94;;;12.81;98.48
25650;BME280;13505;45.196;5.696;2023-04-24T07:58:34;99065.53;;;12.86;96.68
25650;BME280;13505;45.196;5.696;2023-04-24T08:03:25;99074.81;;;12.93;96.34
25650;BME280;13505;45.196;5.696;2023-04-24T08:08:15;99082.38;;;13.16;96.81
25650;BME280;13505;45.196;5.696;2023-04-24T08:13:05;99077.03;;;13.32;96.47
25650;BME280;13505;45.196;5.696;2023-04-24T08:17:57;99082.31;;;13.17;96.78
25650;BME280;13505;45.196;5.696;2023-04-24T08:22:47;99073.84;;;13.41;96.63
25650;BME280;13505;45.196;5.696;2023-04-24T08:27:38;99085.69;;;13.95;93.98
25650;BME280;13505;45.196;5.696;2023-04-24T08:32:29;99080.72;;;14.47;90.32
25650;BME280;13505;45.196;5.696;2023-04-24T08:37:20;99081.63;;;14.18;88.89
25650;BME280;13505;45.196;5.696;2023-04-24T08:42:11;99088.03;;;14.43;88.51
25650;BME280;13505;45.196;5.696;2023-04-24T08:47:02;99083.22;;;14.35;85.35
25650;BME280;13505;45.196;5.696;2023-04-24T08:51:52;99074.81;;;14.98;85.59
25650;BME280;13505;45.196;5.696;2023-04-24T08:56:44;99071.25;;;15.92;82.00
25650;BME280;13505;45.196;5.696;2023-04-24T09:01:37;99054.50;;;16.15;74.36
25650;BME280;13505;45.196;5.696;2023-04-24T09:06:28;99068.22;;;15.44;72.25
25650;BME280;13505;45.196;5.696;2023-04-24T09:11:18;99061.59;;;16.41;72.73
25650;BME280;13505;45.196;5.696;2023-04-24T09:16:09;99070.25;;;17.18;70.64
25650;BME280;13505;45.196;5.696;2023-04-24T09:21:06;99064.72;;;17.91;62.50
25650;BME280;13505;45.196;5.696;2023-04-24T09:25:58;99060.41;;;17.07;60.10
25650;BME280;13505;45.196;5.696;2023-04-24T09:31:22;99064.94;;;17.88;63.30
25650;BME280;13505;45.196;5.696;2023-04-24T09:36:12;99072.78;;;18.69;57.46
25650;BME280;13505;45.196;5.696;2023-04-24T09:41:06;99052.72;;;19.19;55.53
25650;BME280;13505;45.196;5.696;2023-04-24T09:45:57;99056.69;;;19.67;53.06
25650;BME280;13505;45.196;5.696;2023-04-24T09:50:51;99047.97;;;19.22;52.39
25650;BME280;13505;45.196;5.696;2023-04-24T09:55:45;99040.47;;;19.90;50.77
25650;BME280;13505;45.196;5.696;2023-04-24T10:00:36;99045.75;;;18.51;49.65
25650;BME280;13505;45.196;5.696;2023-04-24T10:05:31;99040.81;;;18.35;50.12
25650;BME280;13505;45.196;5.696;2023-04-24T10:10:22;99035.19;;;18.93;50.43
25650;BME280;13505;45.196;5.696;2023-04-24T10:15:13;99042.03;;;17.96;50.11
25650;BME280;13505;45.196;5.696;2023-04-24T10:20:05;99035.22;;;17.81;50.04
25650;BME280;13505;45.196;5.696;2023-04-24T10:24:56;99040.91;;;18.56;51.35
25650;BME280;13505;45.196;5.696;2023-04-24T10:29:49;99032.56;;;18.49;48.87
25650;BME280;13505;45.196;5.696;2023-04-24T10:34:41;99026.91;;;18.64;48.14
25650;BME280;13505;45.196;5.696;2023-04-24T10:39:32;99035.97;;;18.40;49.45
25650;BME280;13505;45.196;5.696;2023-04-24T10:44:23;99017.34;;;18.94;47.92
25650;BME280;13505;45.196;5.696;2023-04-24T10:49:14;99008.72;;;19.02;50.50
25650;BME280;13505;45.196;5.696;2023-04-24T10:59:27;99009.22;;;20.21;43.81
25650;BME280;13505;45.196;5.696;2023-04-24T11:04:32;99005.44;;;20.44;42.89
25650;BME280;13505;45.196;5.696;2023-04-24T11:09:34;98992.34;;;20.31;41.87
25650;BME280;13505;45.196;5.696;2023-04-24T11:14:26;98993.38;;;20.89;41.07
25650;BME280;13505;45.196;5.696;2023-04-24T11:29:16;98989.38;;;20.44;39.69
25650;BME280;13505;45.196;5.696;2023-04-24T11:34:13;98983.88;;;19.63;43.46
25650;BME280;13505;45.196;5.696;2023-04-24T11:39:04;98977.31;;;19.67;48.45
25650;BME280;13505;45.196;5.696;2023-04-24T11:43:55;98957.94;;;19.23;47.23
25650;BME280;13505;45.196;5.696;2023-04-24T11:48:45;98966.03;;;18.79;46.54
25650;BME280;13505;45.196;5.696;2023-04-24T11:53:36;98963.53;;;19.20;43.14
25650;BME280;13505;45.196;5.696;2023-04-24T11:58:26;98958.38;;;19.28;44.02
25650;BME280;13505;45.196;5.696;2023-04-24T12:03:17;98954.25;;;19.45;39.00
25650;BME280;13505;45.196;5.696;2023-04-24T12:08:08;98945.50;;;19.43;39.18
25650;BME280;13505;45.196;5.696;2023-04-24T12:12:59;98938.75;;;18.96;41.31
25650;BME280;13505;45.196;5.696;2023-04-24T12:17:51;98929.44;;;20.05;43.06
25650;BME280;13505;45.196;5.696;2023-04-24T12:22:43;98942.44;;;20.79;35.41
25650;BME280;13505;45.196;5.696;2023-04-24T12:27:35;98946.47;;;21.32;35.41
25650;BME280;13505;45.196;5.696;2023-04-24T12:32:26;98960.88;;;21.41;33.72
25650;BME280;13505;45.196;5.696;2023-04-24T12:37:16;98945.09;;;21.18;36.38
25650;BME280;13505;45.196;5.696;2023-04-24T12:42:06;98940.28;;;21.22;33.68
25650;BME280;13505;45.196;5.696;2023-04-24T12:46:57;98946.63;;;21.31;34.34
25650;BME280;13505;45.196;5.696;2023-04-24T12:51:47;98936.38;;;20.97;34.65
25650;BME280;13505;45.196;5.696;2023-04-24T12:56:38;98929.75;;;20.81;33.75
25650;BME280;13505;45.196;5.696;2023-04-24T13:01:29;98920.69;;;21.12;36.86
25650;BME280;13505;45.196;5.696;2023-04-24T13:06:19;98925.13;;;21.79;33.57
25650;BME280;13505;45.196;5.696;2023-04-24T13:11:11;98924.00;;;21.43;34.44
25650;BME280;13505;45.196;5.696;2023-04-24T13:16:01;98910.47;;;20.87;32.56
25650;BME280;13505;45.196;5.696;2023-04-24T13:20:52;98901.81;;;20.74;35.70
25650;BME280;13505;45.196;5.696;2023-04-24T13:25:42;98900.94;;;21.51;33.06
25650;BME280;13505;45.196;5.696;2023-04-24T13:30:32;98876.91;;;21.21;36.87
25650;BME280;13505;45.196;5.696;2023-04-24T13:35:23;98871.69;;;21.57;35.41
25650;BME280;13505;45.196;5.696;2023-04-24T13:40:13;98861.19;;;21.92;33.52
25650;BME280;13505;45.196;5.696;2023-04-24T13:45:04;98860.13;;;21.19;35.84
25650;BME280;13505;45.196;5.696;2023-04-24T13:49:55;98841.72;;;22.08;32.14
25650;BME280;13505;45.196;5.696;2023-04-24T13:54:45;98835.75;;;21.12;30.58
25650;BME280;13505;45.196;5.696;2023-04-24T13:59:35;98839.59;;;21.38;33.52
25650;BME280;13505;45.196;5.696;2023-04-24T14:04:27;98830.66;;;21.75;31.00
25650;BME280;13505;45.196;5.696;2023-04-24T14:09:17;98814.63;;;21.55;33.22
25650;BME280;13505;45.196;5.696;2023-04-24T14:14:07;98807.66;;;21.72;33.33
25650;BME280;13505;45.196;5.696;2023-04-24T14:18:58;98784.66;;;21.42;33.63
25650;BME280;13505;45.196;5.696;2023-04-24T14:23:48;98796.19;;;20.76;35.89
25650;BME280;13505;45.196;5.696;2023-04-24T14:28:39;98787.59;;;21.21;35.83
25650;BME280;13505;45.196;5.696;2023-04-24T14:33:29;98780.03;;;21.34;35.57
25650;BME280;13505;45.196;5.696;2023-04-24T14:38:20;98787.94;;;21.82;34.25
25650;BME280;13505;45.196;5.696;2023-04-24T14:43:10;98783.50;;;21.91;33.58
25650;BME280;13505;45.196;5.696;2023-04-24T14:48:01;98791.09;;;21.21;34.68
25650;BME280;13505;45.196;5.696;2023-04-24T14:52:51;98787.16;;;20.87;34.83
25650;BME280;13505;45.196;5.696;2023-04-24T14:57:42;98779.84;;;20.60;35.39
25650;BME280;13505;45.196;5.696;2023-04-24T15:02:33;98770.00;;;20.60;36.54
25650;BME280;13505;45.196;5.696;2023-04-24T15:07:23;98771.66;;;21.19;33.72
25650;BME280;13505;45.196;5.696;2023-04-24T15:12:13;98776.22;;;21.09;33.44
25650;BME280;13505;45.196;5.696;2023-04-24T15:17:04;98775.47;;;20.88;33.09
25650;BME280;13505;45.196;5.696;2023-04-24T15:21:54;98765.00;;;20.85;34.94
25650;BME280;13505;45.196;5.696;2023-04-24T15:26:45;98768.00;;;20.62;33.62
25650;BME280;13505;45.196;5.696;2023-04-24T15:31:35;98772.38;;;20.73;33.27
25650;BME280;13505;45.196;5.696;2023-04-24T15:36:29;98769.31;;;20.58;33.86
25650;BME280;13505;45.196;5.696;2023-04-24T15:41:20;98759.41;;;20.69;34.00
25650;BME280;13505;45.196;5.696;2023-04-24T15:46:11;98761.34;;;20.76;34.56
25650;BME280;13505;45.196;5.696;2023-04-24T15:51:01;98760.84;;;20.53;35.31
25650;BME280;13505;45.196;5.696;2023-04-24T15:55:52;98755.72;;;20.70;34.65
25650;BME280;13505;45.196;5.696;2023-04-24T16:00:42;98756.47;;;20.52;33.09
25650;BME280;13505;45.196;5.696;2023-04-24T16:05:33;98746.31;;;20.56;35.16
25650;BME280;13505;45.196;5.696;2023-04-24T16:10:23;98744.25;;;20.40;34.08
25650;BME280;13505;45.196;5.696;2023-04-24T16:15:14;98756.50;;;20.42;34.64
25650;BME280;13505;45.196;5.696;2023-04-24T16:20:05;98752.38;;;20.58;35.35
25650;BME280;13505;45.196;5.696;2023-04-24T16:24:56;98742.59;;;20.19;34.59
25650;BME280;13505;45.196;5.696;2023-04-24T16:29:47;98745.88;;;19.93;34.41
25650;BME280;13505;45.196;5.696;2023-04-24T16:34:38;98750.06;;;19.76;35.41
25650;BME280;13505;45.196;5.696;2023-04-24T16:39:28;98753.81;;;19.63;34.96
25650;BME280;13505;45.196;5.696;2023-04-24T16:44:19;98749.47;;;19.52;35.29
25650;BME280;13505;45.196;5.696;2023-04-24T16:49:09;98751.41;;;19.31;35.58
25650;BME280;13505;45.196;5.696;2023-04-24T16:54:00;98755.28;;;19.17;36.19
25650;BME280;13505;45.196;5.696;2023-04-24T16:58:50;98744.31;;;19.10;36.50
25650;BME280;13505;45.196;5.696;2023-04-24T17:03:41;98742.50;;;19.20;36.47
25650;BME280;13505;45.196;5.696;2023-04-24T17:08:31;98752.09;;;19.23;36.02
25650;BME280;13505;45.196;5.696;2023-04-24T17:13:23;98750.28;;;19.33;35.93
25650;BME280;13505;45.196;5.696;2023-04-24T17:18:13;98751.81;;;19.26;36.09
25650;BME280;13505;45.196;5.696;2023-04-24T17:23:05;98762.91;;;19.21;36.24
25650;BME280;13505;45.196;5.696;2023-04-24T17:27:56;98757.22;;;19.05;36.61
25650;BME280;13505;45.196;5.696;2023-04-24T17:32:46;98758.47;;;19.01;37.00
25650;BME280;13505;45.196;5.696;2023-04-24T17:37:37;98762.78;;;18.92;37.34
25650;BME280;13505;45.196;5.696;2023-04-24T17:42:27;98766.06;;;18.74;37.93
25650;BME280;13505;45.196;5.696;2023-04-24T17:47:18;98768.91;;;18.51;38.38
25650;BME280;13505;45.196;5.696;2023-04-24T17:52:12;98775.16;;;18.40;38.95
25650;BME280;13505;45.196;5.696;2023-04-24T17:57:04;98768.91;;;18.30;39.44
